Aviation Digital Data Service (ADDS)

Output produced by METARs form (1907 UTC 24 April 2014)
found at http://aviationweather.gov/adds/metars/
 
KBUF 241731Z 2418/2518 35008KT P6SM FEW250 
     FM242100 33005KT P6SM SCT250 
     FM250000 VRB03KT P6SM BKN130 
     FM250600 11006KT P6SM BKN130 
     FM251100 10011KT P6SM BKN150 
     FM251700 12012KT P6SM BKN090